Portada
METAR-TAF:

METAR-TAF

Aeroports :

Lanzhou, Xina

latitud: 36-02N, longitud: 103-52E, altitud: 1518 m

Observació

L'informe es va fer fa 25 minuts, a les 21:00 UTC
Vent calma
Temperatura 9°C
Humitat 87%
Pressió 1024 hPa
Visibilitat 10 km o més
Cel ennuvolat a una alçada de 4600 ft
pluja

METAR: ZLLL 252100Z 00000MPS 9999 -RA BKN046 09/07 Q1024 NOSIG

Hora: 05:25 (21:25 UTC)

Pronòstic

L'informe es va fer fa 6 hores i 17 minuts, a les 15:08 UTC
Pronòstic vàlid del 25 a les 18 UTC al 26 a les 18 UTC
Vent 8 kt del Nord
Visibilitat 10 km o més
Núvols disperses a una alçada de 4000 ft
Temporalment
l' 25 a les 22 UTC al 26 a les 04 UTC
Escasses núvols a una alçada de 3300 ft, Cumulonimbus.
Núvols disperses a una alçada de 4000 ft
xàfecs de pluja

TAF: ZLLL 251508Z 2518/2618 01004MPS 9999 SCT040 TX18/2609Z TN06/2522Z TEMPO 2522/2604 -SHRA FEW033CB SCT040

Observacions i pronòstics meteorològics de més de 4000 aeroports (METAR i TAF).

Les estacions disponibles són els punts grocs i vermells al mapa.

Posi el ratolí al punt desitjat per veure el nom de l'estació.

Feu clic per veure les observacions i els pronòstics meteorològics.

Per canviar el mapa: feu clic els botons verds amb una creu de color negre per apropar; al botó verd amb un guió per allunyar la imatge; o en les fletxes verdes per a mapes adjacents.


METAR-TAF: